Time;durP1;ratioP1;P1;durP2;ratioP2;P2;SDS_P1;SDS_P2;PMS_P1;PMS_P2;Temp;Humidity;BMP_temperature;BMP_pressure;BME280_temperature;BME280_humidity;BME280_pressure;Samples;Min_cycle;Max_cycle;Signal;HPM_P1;HPM_P2
2022/06/14 00:01:36;;;;;;;4.55;1.10;;;9.60;99.90;;;;;;5060951;28;19927;-61
2022/06/14 00:04:04;;;;;;;;;;;9.60;99.90;;;;;;5062895;28;20036;-59
2022/06/14 00:06:37;;;;;;;2.63;1.00;;;9.50;99.90;;;;;;5062236;28;19977;-61
2022/06/14 00:09:03;;;;;;;3.40;1.60;;;9.50;99.90;;;;;;5069776;28;20045;-63
2022/06/14 00:11:30;;;;;;;;;;;9.50;99.90;;;;;;5063273;28;20045;-63
2022/06/14 00:13:58;;;;;;;3.67;1.17;;;9.50;99.90;;;;;;5062996;28;19924;-63
2022/06/14 00:16:25;;;;;;;4.28;1.40;;;9.50;99.90;;;;;;5063016;28;20152;-63
2022/06/14 00:18:51;;;;;;;3.50;1.63;;;9.50;99.90;;;;;;5049937;28;20817;-63
2022/06/14 00:21:17;;;;;;;;;;;9.50;99.90;;;;;;5050193;28;20128;-64
2022/06/14 00:23:43;;;;;;;3.57;1.40;;;9.40;99.90;;;;;;5048903;28;19916;-63
2022/06/14 00:26:11;;;;;;;;;;;9.30;99.90;;;;;;5049664;28;20551;-63
2022/06/14 00:28:38;;;;;;;6.50;1.70;;;9.30;99.90;;;;;;5050751;28;19928;-66
2022/06/14 00:31:17;;;;;;;6.43;1.58;;;9.20;99.90;;;;;;5068049;28;20037;-63
2022/06/14 00:33:43;;;;;;;5.60;1.42;;;9.20;99.90;;;;;;5061111;28;20810;-63
2022/06/14 00:36:18;;;;;;;;;;;9.10;99.90;;;;;;5049691;28;20511;-63
2022/06/14 00:38:44;;;;;;;3.83;1.58;;;9.10;99.90;;;;;;5048632;28;19943;-63
2022/06/14 00:41:26;;;;;;;;;;;9.10;99.90;;;;;;5049686;28;20037;-63
2022/06/14 00:43:51;;;;;;;5.20;1.23;;;9.10;99.90;;;;;;5048742;28;19978;-63
2022/06/14 00:46:20;;;;;;;;;;;9.10;99.90;;;;;;5048470;28;20548;-62
2022/06/14 00:48:53;;;;;;;6.20;1.40;;;9.10;99.90;;;;;;5049129;28;19927;-66
2022/06/14 00:51:29;;;;;;;3.20;1.40;;;9.10;99.90;;;;;;5048813;28;20080;-64
2022/06/14 00:54:16;;;;;;;3.53;1.50;;;9.10;99.90;;;;;;5047985;28;20033;-65
2022/06/14 00:56:52;;;;;;;;;;;9.10;99.90;;;;;;5049240;28;20452;-63
2022/06/14 00:59:24;;;;;;;3.30;1.43;;;9.00;99.90;;;;;;5055493;28;20018;-63
2022/06/14 01:01:53;;;;;;;5.50;1.70;;;9.00;99.90;;;;;;5068178;28;20037;-61
2022/06/14 01:04:24;;;;;;;4.57;1.80;;;9.00;99.90;;;;;;5059431;28;20075;-61
2022/06/14 01:07:00;;;;;;;5.13;1.30;;;9.00;99.90;;;;;;5047901;28;20133;-61
2022/06/14 01:09:41;;;;;;;13.70;1.77;;;9.00;99.90;;;;;;5048200;28;20079;-61
2022/06/14 01:12:11;;;;;;;8.05;1.60;;;9.00;99.90;;;;;;5048691;28;20140;-61
2022/06/14 01:15:01;;;;;;;5.13;1.52;;;9.00;99.90;;;;;;5048570;28;20045;-61
2022/06/14 01:17:28;;;;;;;5.63;1.45;;;8.90;99.90;;;;;;5048422;28;20041;-60
2022/06/14 01:19:54;;;;;;;8.00;2.05;;;8.80;99.90;;;;;;5047433;28;20047;-60
2022/06/14 01:22:20;;;;;;;3.83;1.90;;;8.90;99.90;;;;;;5048063;28;20037;-61
2022/06/14 01:24:46;;;;;;;3.08;1.30;;;8.90;99.90;;;;;;5047136;28;20561;-61
2022/06/14 01:27:14;;;;;;;;;;;8.90;99.90;;;;;;5048210;28;20135;-61
2022/06/14 01:29:44;;;;;;;5.20;1.42;;;8.80;99.90;;;;;;5051383;28;19970;-61
2022/06/14 01:32:12;;;;;;;4.28;2.17;;;8.80;99.90;;;;;;5067275;28;20037;-61
2022/06/14 01:34:42;;;;;;;5.03;1.63;;;8.70;99.90;;;;;;5062808;28;20055;-61
2022/06/14 01:37:08;;;;;;;7.82;1.85;;;8.60;99.90;;;;;;5048264;28;20080;-61
2022/06/14 01:39:36;;;;;;;;;;;8.70;99.90;;;;;;5048680;28;20055;-61
2022/06/14 01:42:23;;;;;;;5.40;1.30;;;8.70;99.90;;;;;;5047827;28;19948;-60
2022/06/14 01:45:06;;;;;;;5.47;1.92;;;8.80;99.90;;;;;;5048562;28;20040;-61
2022/06/14 01:47:34;;;;;;;2.65;1.30;;;8.80;99.90;;;;;;5028465;28;20514;-61
2022/06/14 01:52:59;;;;;;;5.70;1.50;;;8.70;99.90;;;;;;5047639;28;20045;-61
2022/06/14 01:55:34;;;;;;;;;;;8.70;99.90;;;;;;5047997;28;20060;-60
2022/06/14 01:58:25;;;;;;;4.70;1.67;;;8.60;99.90;;;;;;5046621;28;19970;-60
2022/06/14 02:00:54;;;;;;;5.60;1.60;;;8.60;99.90;;;;;;5064069;28;20046;-61
2022/06/14 02:06:28;;;;;;;7.60;1.90;;;8.70;99.90;;;;;;5047583;28;20681;-61
2022/06/14 02:09:01;;;;;;;7.60;1.75;;;8.70;99.90;;;;;;5047061;28;20060;-61
2022/06/14 02:11:35;;;;;;;3.72;1.35;;;8.70;99.90;;;;;;5046940;28;20463;-61
2022/06/14 02:14:15;;;;;;;7.28;1.80;;;8.70;99.90;;;;;;5046985;28;20040;-60
2022/06/14 02:17:00;;;;;;;7.68;1.45;;;8.60;99.90;;;;;;5047258;28;20049;-59
2022/06/14 02:19:32;;;;;;;5.93;2.20;;;8.60;99.90;;;;;;5046848;28;20048;-61
2022/06/14 02:22:06;;;;;;;10.68;2.15;;;8.60;99.90;;;;;;5046657;28;20140;-61
2022/06/14 02:24:42;;;;;;;2.78;1.40;;;8.60;99.90;;;;;;5046847;28;20055;-61
2022/06/14 02:27:20;;;;;;;6.93;1.75;;;8.70;99.90;;;;;;5045625;28;20088;-61
2022/06/14 02:29:56;;;;;;;6.65;1.98;;;8.70;99.90;;;;;;5056750;28;20067;-61
2022/06/14 02:32:37;;;;;;;5.82;2.00;;;8.70;99.90;;;;;;5042033;28;20037;-61
2022/06/14 02:35:08;;;;;;;4.88;1.73;;;8.60;99.90;;;;;;5039428;28;20650;-61
2022/06/14 02:37:49;;;;;;;6.03;1.60;;;8.60;99.90;;;;;;5047321;28;20044;-61
2022/06/14 02:40:36;;;;;;;4.85;1.70;;;8.60;99.90;;;;;;5046365;28;20037;-61
2022/06/14 02:43:17;;;;;;;3.47;1.42;;;8.50;99.90;;;;;;5046914;28;20044;-57
2022/06/14 02:45:57;;;;;;;10.07;1.70;;;8.50;99.90;;;;;;5046833;28;20045;-59
2022/06/14 02:48:31;;;;;;;13.10;2.15;;;8.50;99.90;;;;;;5046629;28;20076;-59
2022/06/14 02:50:59;;;;;;;3.15;1.40;;;8.50;99.90;;;;;;5045934;28;20036;-59
2022/06/14 02:53:41;;;;;;;6.40;1.52;;;8.50;99.90;;;;;;5046152;28;20045;-57
2022/06/14 02:56:11;;;;;;;5.30;1.70;;;8.50;99.90;;;;;;5046419;28;20079;-57
2022/06/14 02:59:00;;;;;;;7.80;2.03;;;8.40;99.90;;;;;;5048095;28;20041;-60
2022/06/14 03:01:42;;;;;;;5.40;1.48;;;8.40;99.90;;;;;;5057032;28;20127;-59
2022/06/14 03:04:12;;;;;;;9.32;1.85;;;8.40;99.90;;;;;;5059550;28;20037;-59
2022/06/14 03:06:48;;;;;;;7.13;1.83;;;8.40;99.90;;;;;;5046482;28;20049;-59
2022/06/14 03:09:24;;;;;;;3.35;1.48;;;8.40;99.90;;;;;;5046345;28;20133;-59
2022/06/14 03:11:54;;;;;;;9.88;2.35;;;8.40;99.90;;;;;;5045646;28;20076;-60
2022/06/14 03:14:38;;;;;;;8.88;2.47;;;8.40;99.90;;;;;;5045326;28;20033;-58
2022/06/14 03:17:04;;;;;;;5.60;1.52;;;8.30;99.90;;;;;;5037205;28;20048;-60
2022/06/14 03:19:41;;;;;;;;;;;8.40;99.90;;;;;;5046830;28;20408;-58
2022/06/14 03:22:19;;;;;;;6.00;1.50;;;8.40;99.90;;;;;;5045796;28;19934;-59
2022/06/14 03:24:55;;;;;;;8.73;1.70;;;8.40;99.90;;;;;;5044787;28;20045;-59
2022/06/14 03:27:36;;;;;;;4.90;1.63;;;8.40;99.90;;;;;;5046892;28;20044;-59
2022/06/14 03:30:26;;;;;;;5.80;2.00;;;8.40;99.90;;;;;;5059111;28;20036;-59
2022/06/14 03:33:00;;;;;;;5.97;1.98;;;8.40;99.90;;;;;;5059789;28;20181;-59
2022/06/14 03:35:36;;;;;;;3.88;1.55;;;8.30;99.90;;;;;;5067406;28;20048;-59
2022/06/14 03:38:40;;;;;;;7.22;1.88;;;8.40;99.90;;;;;;5050023;28;20548;-58
2022/06/14 03:41:08;;;;;;;10.30;1.80;;;8.50;99.90;;;;;;5046283;28;20041;-59
2022/06/14 03:43:36;;;;;;;6.05;1.88;;;8.40;99.90;;;;;;5026901;28;20042;-59
2022/06/14 03:46:15;;;;;;;7.15;1.73;;;8.40;99.90;;;;;;5026570;28;20049;-58
2022/06/14 03:48:44;;;;;;;4.63;1.55;;;8.40;99.90;;;;;;5026865;28;20042;-56
2022/06/14 03:51:31;;;;;;;4.53;1.70;;;8.60;99.90;;;;;;5026887;28;20159;-57
2022/06/14 03:54:22;;;;;;;4.22;1.50;;;8.70;99.90;;;;;;5029811;28;20045;-59
2022/06/14 03:57:06;;;;;;;6.90;1.98;;;8.70;99.90;;;;;;5051439;28;20109;-59
2022/06/14 04:00:00;;;;;;;6.57;1.75;;;8.60;99.90;;;;;;5067083;28;20041;-58
2022/06/14 04:03:03;;;;;;;6.93;1.60;;;8.60;99.90;;;;;;5064763;28;20041;-59
2022/06/14 04:05:32;;;;;;;5.47;1.65;;;8.60;99.90;;;;;;5039785;28;20531;-58
2022/06/14 04:08:26;;;;;;;5.28;1.83;;;8.50;99.90;;;;;;5047803;28;20041;-60
2022/06/14 04:11:14;;;;;;;7.88;1.48;;;8.50;99.90;;;;;;5049396;28;20037;-58
2022/06/14 04:14:08;;;;;;;2.45;1.55;;;8.40;99.90;;;;;;5049805;28;20049;-60
2022/06/14 04:16:55;;;;;;;4.90;1.65;;;8.50;99.90;;;;;;5049853;28;20040;-59
2022/06/14 04:19:29;;;;;;;;;;;8.70;99.90;;;;;;5030816;28;20038;-60
2022/06/14 04:21:58;;;;;;;4.22;1.33;;;9.00;99.90;;;;;;5032206;28;19921;-60
2022/06/14 04:24:40;;;;;;;6.35;1.75;;;9.10;99.90;;;;;;5070324;28;20051;-60
2022/06/14 04:27:15;;;;;;;4.88;1.83;;;9.20;99.90;;;;;;5067571;28;20056;-60
2022/06/14 04:30:10;;;;;;;9.25;2.60;;;9.30;99.90;;;;;;5063146;28;20047;-61
2022/06/14 04:32:44;;;;;;;7.20;2.13;;;9.50;99.90;;;;;;5043904;28;20052;-60
2022/06/14 04:35:21;;;;;;;5.57;1.67;;;9.80;99.90;;;;;;5049653;28;20033;-60
2022/06/14 04:37:53;;;;;;;4.53;1.75;;;10.20;99.90;;;;;;5049642;28;20060;-61
2022/06/14 04:40:31;;;;;;;6.82;1.80;;;10.30;99.90;;;;;;5048929;28;20055;-61
2022/06/14 04:43:00;;;;;;;8.45;1.90;;;10.30;99.90;;;;;;5048720;28;20112;-62
2022/06/14 04:45:57;;;;;;;7.03;2.05;;;10.50;99.90;;;;;;5050147;28;20161;-62
2022/06/14 04:48:51;;;;;;;8.70;2.77;;;10.40;99.90;;;;;;5049817;28;20124;-62
2022/06/14 04:51:22;;;;;;;7.72;3.20;;;10.30;99.90;;;;;;5049146;28;20191;-62
2022/06/14 04:54:16;;;;;;;6.03;1.92;;;10.30;99.90;;;;;;5049513;28;20056;-62
2022/06/14 04:56:58;;;;;;;8.40;1.90;;;10.40;99.90;;;;;;5049399;28;20506;-62
2022/06/14 04:59:33;;;;;;;7.03;1.85;;;10.50;99.90;;;;;;5046305;28;20051;-61
2022/06/14 05:02:09;;;;;;;6.90;1.80;;;10.20;99.90;;;;;;5044350;28;20033;-62
2022/06/14 05:04:43;;;;;;;9.30;1.90;;;10.30;99.90;;;;;;5044186;28;20068;-61
2022/06/14 05:07:37;;;;;;;6.38;2.08;;;10.40;99.90;;;;;;5044566;28;20045;-61
2022/06/14 05:10:09;;;;;;;4.10;1.70;;;10.40;99.90;;;;;;5038279;28;20049;-61
2022/06/14 05:12:37;;;;;;;4.95;2.20;;;10.40;99.90;;;;;;5043942;28;20044;-62
2022/06/14 05:15:17;;;;;;;6.88;2.33;;;10.60;99.90;;;;;;5045975;28;20270;-62
2022/06/14 05:17:54;;;;;;;6.68;1.95;;;10.70;99.90;;;;;;5046225;28;20049;-62
2022/06/14 05:20:32;;;;;;;5.75;2.10;;;10.80;99.90;;;;;;5045042;28;20033;-62
2022/06/14 05:23:07;;;;;;;3.42;1.45;;;10.90;99.90;;;;;;5047039;28;20043;-61
2022/06/14 05:25:56;;;;;;;8.65;2.42;;;11.00;99.90;;;;;;5044803;28;20041;-62
2022/06/14 05:28:52;;;;;;;5.82;1.85;;;11.10;99.90;;;;;;5040070;28;20037;-62
2022/06/14 05:31:37;;;;;;;8.25;1.70;;;11.50;99.90;;;;;;5047646;28;20879;-62
2022/06/14 05:34:03;;;;;;;7.50;2.00;;;12.60;99.90;;;;;;5039889;28;20088;-60
2022/06/14 05:36:31;;;;;;;;;;;13.30;99.90;;;;;;5047576;28;20095;-61
2022/06/14 05:39:05;;;;;;;4.93;1.55;;;13.30;99.90;;;;;;5048444;28;19947;-62
2022/06/14 05:41:45;;;;;;;5.63;1.70;;;13.30;99.90;;;;;;5046220;28;20072;-61
2022/06/14 05:44:16;;;;;;;8.38;2.10;;;13.50;99.90;;;;;;5043353;28;20041;-61
2022/06/14 05:46:52;;;;;;;10.07;2.17;;;13.70;99.90;;;;;;5047092;28;20049;-60
2022/06/14 05:49:25;;;;;;;8.98;2.00;;;13.40;99.90;;;;;;5047176;28;20032;-60
2022/06/14 05:52:11;;;;;;;9.25;1.88;;;13.10;99.90;;;;;;5047971;28;20115;-61
2022/06/14 05:54:40;;;;;;;6.60;1.80;;;13.00;99.90;;;;;;5047497;28;20132;-61
2022/06/14 05:57:18;;;;;;;7.00;1.85;;;13.00;99.90;;;;;;5027813;28;20149;-61
2022/06/14 05:59:50;;;;;;;5.88;1.60;;;13.10;99.90;;;;;;5041485;28;20049;-61
2022/06/14 06:02:32;;;;;;;11.25;3.03;;;13.00;99.90;;;;;;5040502;28;20087;-61
2022/06/14 06:05:19;;;;;;;8.02;1.80;;;13.00;99.90;;;;;;5042517;28;20099;-60
2022/06/14 06:07:55;;;;;;;12.52;2.25;;;13.10;99.90;;;;;;5047547;28;20044;-61
2022/06/14 06:10:31;;;;;;;4.90;1.93;;;13.20;99.90;;;;;;5047811;28;20041;-60
2022/06/14 06:13:02;;;;;;;7.38;2.75;;;13.30;99.90;;;;;;5048329;28;20283;-61
2022/06/14 06:15:54;;;;;;;7.05;2.20;;;13.50;98.40;;;;;;5046046;28;20044;-61
2022/06/14 06:18:25;;;;;;;6.97;1.98;;;14.70;99.30;;;;;;5046793;28;20086;-61
2022/06/14 06:21:01;;;;;;;14.68;2.67;;;16.50;94.50;;;;;;5045701;28;20505;-61
2022/06/14 06:23:51;;;;;;;9.25;2.00;;;16.60;93.30;;;;;;5029780;28;20045;-61
2022/06/14 06:26:20;;;;;;;9.68;1.80;;;15.90;93.40;;;;;;5025643;28;20053;-61
2022/06/14 06:28:54;;;;;;;8.15;2.33;;;15.30;93.10;;;;;;5035384;28;20083;-54
2022/06/14 06:31:30;;;;;;;8.77;2.47;;;15.00;93.10;;;;;;5049896;28;20060;-59
2022/06/14 06:33:57;;;;;;;10.75;3.92;;;15.20;93.50;;;;;;5045659;28;20045;-60
2022/06/14 06:36:38;;;;;;;10.30;1.92;;;15.60;92.50;;;;;;5047643;28;20824;-58
2022/06/14 06:39:40;;;;;;;8.60;1.73;;;15.30;92.20;;;;;;5047311;28;20053;-58
2022/06/14 06:42:20;;;;;;;14.57;2.33;;;15.00;93.20;;;;;;5027257;28;20046;-60
2022/06/14 06:45:00;;;;;;;7.00;2.17;;;14.90;93.00;;;;;;5032463;28;20186;-59
2022/06/14 06:47:33;;;;;;;8.30;1.83;;;15.00;93.60;;;;;;5047170;28;20186;-63
2022/06/14 06:50:22;;;;;;;6.40;1.65;;;15.10;93.00;;;;;;5047042;28;20045;-62
2022/06/14 06:52:54;;;;;;;8.05;2.00;;;15.60;92.90;;;;;;5046973;28;20087;-61
2022/06/14 06:55:34;;;;;;;7.80;2.30;;;16.20;91.40;;;;;;5046487;28;20047;-62
2022/06/14 06:58:04;;;;;;;9.52;1.50;;;16.50;90.70;;;;;;5047722;28;20072;-62
2022/06/14 07:00:32;;;;;;;7.15;1.92;;;16.40;91.40;;;;;;5062756;28;20510;-62
2022/06/14 07:03:04;;;;;;;6.72;1.48;;;16.10;91.00;;;;;;5028489;28;20532;-61
2022/06/14 07:05:30;;;;;;;9.43;2.33;;;16.00;91.60;;;;;;5044885;28;20155;-61
2022/06/14 07:08:01;;;;;;;;;;;15.70;91.80;;;;;;5045386;28;20056;-61
2022/06/14 07:10:43;;;;;;;8.13;2.25;;;15.60;92.90;;;;;;5047050;28;19936;-61
2022/06/14 07:13:37;;;;;;;10.68;1.90;;;15.70;93.10;;;;;;5034396;28;20120;-60
2022/06/14 07:16:33;;;;;;;7.97;2.25;;;15.70;92.20;;;;;;5040087;28;20036;-61
2022/06/14 07:19:23;;;;;;;9.15;1.88;;;15.70;93.60;;;;;;5027824;28;20049;-61
2022/06/14 07:21:57;;;;;;;6.60;1.67;;;16.60;91.90;;;;;;5043892;28;20429;-61
2022/06/14 07:24:51;;;;;;;14.60;2.35;;;17.40;88.50;;;;;;5045652;28;20106;-61
2022/06/14 07:27:22;;;;;;;8.63;1.75;;;17.10;89.30;;;;;;5026667;28;20045;-60
2022/06/14 07:29:59;;;;;;;5.25;1.63;;;16.60;91.00;;;;;;5052887;28;20048;-61
2022/06/14 07:32:35;;;;;;;8.65;1.80;;;16.40;91.30;;;;;;5079687;28;20393;-60
2022/06/14 07:35:01;;;;;;;8.32;1.58;;;16.30;91.30;;;;;;5091137;28;20139;-60
2022/06/14 07:37:40;;;;;;;11.80;2.05;;;16.40;92.20;;;;;;5070879;28;20181;-62
2022/06/14 07:40:19;;;;;;;5.78;1.65;;;16.30;91.10;;;;;;5070790;28;20132;-61
2022/06/14 07:43:08;;;;;;;7.05;1.85;;;16.30;92.60;;;;;;5070286;28;20114;-60
2022/06/14 07:45:47;;;;;;;8.43;1.90;;;16.20;93.10;;;;;;5067293;28;20050;-61
2022/06/14 07:48:32;;;;;;;15.63;2.75;;;16.30;92.80;;;;;;5070674;28;20047;-61
2022/06/14 07:51:05;;;;;;;7.47;1.52;;;16.20;92.40;;;;;;5069968;28;20044;-61
2022/06/14 07:53:40;;;;;;;7.80;2.95;;;16.30;91.80;;;;;;5068959;28;20048;-61
2022/06/14 07:56:18;;;;;;;8.38;1.80;;;16.30;92.40;;;;;;5070274;28;20055;-61
2022/06/14 07:58:59;;;;;;;9.30;1.88;;;16.60;92.80;;;;;;5072079;28;20041;-61
2022/06/14 08:01:37;;;;;;;8.20;1.85;;;16.70;92.60;;;;;;5073427;28;20040;-61
2022/06/14 08:04:36;;;;;;;10.55;1.85;;;16.70;91.80;;;;;;5070058;28;20036;-62
2022/06/14 08:07:13;;;;;;;9.73;2.05;;;16.60;91.80;;;;;;5061888;28;20052;-58
2022/06/14 08:09:53;;;;;;;15.32;2.10;;;16.80;91.90;;;;;;5070477;28;20079;-60
2022/06/14 08:12:53;;;;;;;10.82;2.70;;;17.60;89.40;;;;;;5070195;28;20048;-61
2022/06/14 08:15:30;;;;;;;5.28;1.67;;;18.20;85.10;;;;;;5067623;28;20045;-61
2022/06/14 08:18:05;;;;;;;7.10;2.08;;;18.70;85.10;;;;;;5070175;28;20088;-61
2022/06/14 08:20:48;;;;;;;5.57;1.50;;;18.70;82.60;;;;;;5070460;28;20044;-61
2022/06/14 08:24:00;;;;;;;6.45;1.30;;;18.70;83.30;;;;;;5049683;28;20044;-61
2022/06/14 08:26:33;;;;;;;6.28;1.73;;;18.70;87.30;;;;;;5051833;28;20056;-62
2022/06/14 08:29:10;;;;;;;3.58;1.25;;;18.50;86.80;;;;;;5073769;28;20071;-61
2022/06/14 08:31:41;;;;;;;;;;;18.30;87.70;;;;;;5075188;28;20035;-62
2022/06/14 08:34:33;;;;;;;7.03;2.10;;;18.20;85.70;;;;;;5069802;28;19982;-60
2022/06/14 08:37:03;;;;;;;8.18;2.17;;;18.80;85.90;;;;;;5070108;28;20044;-60
2022/06/14 08:39:33;;;;;;;5.53;2.08;;;19.30;86.30;;;;;;5069057;28;20093;-61
2022/06/14 08:42:12;;;;;;;8.27;1.92;;;20.10;83.10;;;;;;5067996;28;20068;-61
2022/06/14 08:44:47;;;;;;;7.78;2.15;;;21.00;80.00;;;;;;5068686;28;20036;-61
2022/06/14 08:47:36;;;;;;;8.18;1.60;;;22.50;76.70;;;;;;5061185;28;20051;-61
2022/06/14 08:50:32;;;;;;;10.90;2.20;;;23.40;71.40;;;;;;5062673;28;20029;-60
2022/06/14 08:53:25;;;;;;;7.93;1.67;;;22.70;72.90;;;;;;5057300;28;20067;-61
2022/06/14 08:56:42;;;;;;;8.27;1.88;;;21.20;77.70;;;;;;5068934;28;20051;-61
2022/06/14 08:59:14;;;;;;;7.07;1.70;;;20.60;79.60;;;;;;5052250;28;20032;-61
2022/06/14 09:02:07;;;;;;;4.75;1.45;;;20.20;80.10;;;;;;5065652;28;20040;-60
2022/06/14 09:05:01;;;;;;;12.77;1.88;;;19.60;81.10;;;;;;5061649;28;20492;-61
2022/06/14 09:07:41;;;;;;;6.43;1.63;;;19.20;83.80;;;;;;5063752;28;20051;-61
2022/06/14 09:10:20;;;;;;;6.38;2.10;;;18.80;82.70;;;;;;5065154;28;20051;-60
2022/06/14 09:13:12;;;;;;;6.13;1.60;;;18.60;86.90;;;;;;5068654;28;20040;-58
2022/06/14 09:15:44;;;;;;;9.95;1.75;;;18.50;84.60;;;;;;5069001;28;20044;-61
2022/06/14 09:18:36;;;;;;;7.03;1.73;;;18.60;84.80;;;;;;5068093;28;20032;-60
2022/06/14 09:21:12;;;;;;;7.70;1.42;;;18.70;86.70;;;;;;5048008;28;20037;-61
2022/06/14 09:24:04;;;;;;;10.15;2.00;;;18.80;83.40;;;;;;5064080;28;20071;-61
2022/06/14 09:27:01;;;;;;;8.55;1.92;;;18.70;86.90;;;;;;5068437;28;20094;-60
2022/06/14 09:29:54;;;;;;;8.50;2.30;;;18.40;85.20;;;;;;5062328;28;20087;-60
2022/06/14 09:35:59;;;;;;;7.47;2.20;;;18.10;84.60;;;;;;5067526;28;20041;-61
2022/06/14 09:38:54;;;;;;;10.70;1.70;;;17.90;87.50;;;;;;5065798;28;20033;-61
2022/06/14 09:42:05;;;;;;;2.97;1.30;;;18.10;87.50;;;;;;5064492;28;20169;-61
2022/06/14 09:44:56;;;;;;;8.68;1.52;;;18.20;84.50;;;;;;5064558;28;20049;-61
2022/06/14 09:47:46;;;;;;;11.30;2.30;;;18.20;85.70;;;;;;5068474;28;20606;-61
2022/06/14 09:50:33;;;;;;;8.50;1.88;;;18.20;84.50;;;;;;5067299;28;20044;-61
2022/06/14 09:53:37;;;;;;;7.95;2.33;;;18.10;86.20;;;;;;5067980;28;20048;-59
2022/06/14 09:56:12;;;;;;;10.75;2.05;;;18.10;85.70;;;;;;5068193;28;20404;-62
2022/06/14 09:59:09;;;;;;;8.55;1.75;;;18.20;85.10;;;;;;5068143;28;20044;-62
2022/06/14 10:01:53;;;;;;;9.40;1.70;;;18.40;80.70;;;;;;5066554;28;20048;-61
2022/06/14 10:04:38;;;;;;;6.93;1.60;;;18.50;82.20;;;;;;5068632;28;20119;-61
2022/06/14 10:07:28;;;;;;;7.38;1.48;;;18.70;80.50;;;;;;5066183;28;20054;-61
2022/06/14 10:10:32;;;;;;;10.35;1.83;;;18.70;82.30;;;;;;5066932;28;20507;-60
2022/06/14 10:13:32;;;;;;;6.63;1.80;;;18.70;80.00;;;;;;5068262;28;20040;-62
2022/06/14 10:16:07;;;;;;;11.15;1.58;;;18.70;82.80;;;;;;5048580;28;20531;-61
2022/06/14 10:19:07;;;;;;;6.07;1.80;;;18.70;79.80;;;;;;5066304;28;20562;-62
2022/06/14 10:21:56;;;;;;;6.75;1.67;;;18.70;85.70;;;;;;5059405;28;20036;-61
2022/06/14 10:24:37;;;;;;;5.00;1.35;;;19.00;78.80;;;;;;5065663;28;20492;-60
2022/06/14 10:30:05;;;;;;;8.02;1.45;;;19.30;77.60;;;;;;5067360;28;20234;-61
2022/06/14 10:33:12;;;;;;;4.10;1.67;;;19.40;76.90;;;;;;5066890;28;20447;-61
2022/06/14 10:35:57;;;;;;;;;;;19.60;78.80;;;;;;5065063;28;20274;-61
2022/06/14 10:38:41;;;;;;;4.32;1.40;;;19.50;77.70;;;;;;5067957;28;20668;-61
2022/06/14 10:41:19;;;;;;;10.98;1.33;;;19.50;80.00;;;;;;5067588;28;20032;-60
2022/06/14 10:44:10;;;;;;;7.88;1.73;;;19.40;78.10;;;;;;5066224;28;20109;-60
2022/06/14 10:46:54;;;;;;;7.57;1.80;;;19.40;77.80;;;;;;5063816;28;20085;-61
2022/06/14 10:49:44;;;;;;;4.30;1.10;;;19.50;82.70;;;;;;5064556;28;20039;-61
2022/06/14 10:52:24;;;;;;;6.80;1.70;;;19.70;78.70;;;;;;5054460;28;20029;-61
2022/06/14 10:55:16;;;;;;;5.18;1.27;;;19.50;77.20;;;;;;5064768;28;20115;-60
2022/06/14 10:57:59;;;;;;;11.20;1.33;;;19.50;79.90;;;;;;5065982;28;20048;-61
2022/06/14 11:00:44;;;;;;;11.02;2.55;;;19.40;80.80;;;;;;5065709;28;20036;-62
2022/06/14 11:03:35;;;;;;;5.97;1.45;;;19.40;78.70;;;;;;5061095;28;20157;-64
2022/06/14 11:06:19;;;;;;;13.80;1.83;;;19.40;77.50;;;;;;5066980;28;20041;-64
2022/06/14 11:08:56;;;;;;;5.68;1.60;;;19.50;77.80;;;;;;5066778;28;20522;-64
2022/06/14 11:11:35;;;;;;;5.20;1.80;;;19.30;77.40;;;;;;5066343;28;20044;-63
2022/06/14 11:14:06;;;;;;;5.88;1.60;;;19.40;79.70;;;;;;5066643;28;20036;-64
2022/06/14 11:17:29;;;;;;;6.75;1.58;;;19.60;79.10;;;;;;5065351;28;20052;-65
2022/06/14 11:20:01;;;;;;;6.63;1.67;;;19.70;81.00;;;;;;5030625;28;20698;-63
2022/06/14 11:22:36;;;;;;;8.93;1.90;;;19.80;78.40;;;;;;5061156;28;20425;-62
2022/06/14 11:25:18;;;;;;;4.28;1.27;;;19.70;80.60;;;;;;5063370;28;20051;-62
2022/06/14 11:28:12;;;;;;;11.55;1.52;;;20.00;80.40;;;;;;5061133;28;20072;-62
2022/06/14 11:31:03;;;;;;;4.78;1.38;;;20.00;76.70;;;;;;5063074;28;20128;-63
2022/06/14 11:33:48;;;;;;;7.70;1.30;;;19.90;79.30;;;;;;5063317;28;20408;-62
2022/06/14 11:36:17;;;;;;;13.55;2.03;;;19.90;77.30;;;;;;5062131;28;20127;-61
2022/06/14 11:38:56;;;;;;;6.18;1.65;;;19.60;75.30;;;;;;5056193;28;20057;-62
2022/06/14 11:41:25;;;;;;;7.22;1.90;;;19.60;77.70;;;;;;5065039;28;20110;-63
2022/06/14 11:44:21;;;;;;;5.55;1.95;;;19.80;78.40;;;;;;5059552;28;20186;-63
2022/06/14 11:46:58;;;;;;;6.80;1.40;;;19.60;76.20;;;;;;5064749;28;20036;-62
2022/06/14 11:49:32;;;;;;;11.05;2.05;;;19.70;78.30;;;;;;5058746;28;20112;-63
2022/06/14 11:52:27;;;;;;;5.75;2.05;;;19.70;76.00;;;;;;5067232;28;20494;-62
2022/06/14 11:55:23;;;;;;;7.40;2.03;;;19.70;76.60;;;;;;5061565;28;20040;-62
2022/06/14 11:58:19;;;;;;;4.45;1.20;;;19.60;77.90;;;;;;5071571;28;20063;-62
2022/06/14 12:00:45;;;;;;;13.30;1.80;;;19.80;76.70;;;;;;5062685;28;20060;-62
2022/06/14 12:03:45;;;;;;;6.13;1.65;;;19.90;76.80;;;;;;5053424;28;20099;-62
2022/06/14 12:06:24;;;;;;;5.38;1.95;;;19.80;76.30;;;;;;5059891;28;20124;-62
2022/06/14 12:09:23;;;;;;;3.35;1.20;;;20.00;78.40;;;;;;5066496;28;20040;-63
2022/06/14 12:12:14;;;;;;;6.10;1.63;;;20.30;77.40;;;;;;5065129;28;20063;-62
2022/06/14 12:14:59;;;;;;;8.68;1.70;;;20.30;75.90;;;;;;5056912;28;20136;-62
2022/06/14 12:17:36;;;;;;;8.35;1.77;;;20.20;81.60;;;;;;5068980;28;20055;-62
2022/06/14 12:20:11;;;;;;;7.93;1.40;;;20.50;78.50;;;;;;5069990;28;20036;-63
2022/06/14 12:22:47;;;;;;;5.70;1.67;;;20.50;80.40;;;;;;5069868;28;21088;-62
2022/06/14 12:28:40;;;;;;;6.35;2.72;;;20.40;79.50;;;;;;5069707;28;20048;-62
2022/06/14 12:31:20;;;;;;;6.80;2.08;;;20.10;79.30;;;;;;5060061;28;20041;-62
2022/06/14 12:33:50;;;;;;;6.78;1.60;;;20.10;79.70;;;;;;5069145;28;20166;-62
2022/06/14 12:36:29;;;;;;;6.07;2.22;;;20.10;81.40;;;;;;5069103;28;20071;-62
2022/06/14 12:39:00;;;;;;;10.73;2.20;;;20.00;78.60;;;;;;5069664;28;20388;-62
2022/06/14 12:41:31;;;;;;;7.10;1.67;;;20.10;79.30;;;;;;5068729;28;20044;-63
2022/06/14 12:44:21;;;;;;;7.15;1.70;;;20.10;82.50;;;;;;5065802;28;20047;-63
2022/06/14 12:46:49;;;;;;;5.13;1.60;;;20.40;81.70;;;;;;5066332;28;20135;-62
2022/06/14 12:49:29;;;;;;;5.78;1.90;;;20.60;79.80;;;;;;5055369;28;20140;-62
2022/06/14 12:52:06;;;;;;;11.73;1.95;;;20.70;78.00;;;;;;5067888;28;20040;-62
2022/06/14 12:54:54;;;;;;;10.15;1.70;;;21.00;79.90;;;;;;5068850;28;20040;-62
2022/06/14 12:57:47;;;;;;;7.10;1.60;;;21.00;80.70;;;;;;5067985;28;20121;-63
2022/06/14 13:00:27;;;;;;;12.02;1.92;;;21.20;82.10;;;;;;5068248;28;20048;-63
2022/06/14 13:03:24;;;;;;;4.68;1.67;;;21.20;78.50;;;;;;5057599;28;20049;-62
2022/06/14 13:05:55;;;;;;;4.57;1.50;;;21.20;76.30;;;;;;5048850;28;20048;-62
2022/06/14 13:08:26;;;;;;;5.57;2.30;;;21.30;76.00;;;;;;5069078;28;20036;-62
2022/06/14 13:11:24;;;;;;;5.25;1.60;;;21.40;79.10;;;;;;5060770;28;20501;-62
2022/06/14 13:14:08;;;;;;;5.25;1.33;;;21.40;76.30;;;;;;5060078;28;20036;-62
2022/06/14 13:17:00;;;;;;;4.90;1.73;;;21.40;77.20;;;;;;5064956;28;20048;-62
2022/06/14 13:20:03;;;;;;;8.10;2.05;;;21.50;77.30;;;;;;5069107;28;20152;-62
2022/06/14 13:22:43;;;;;;;5.82;1.60;;;21.30;75.60;;;;;;5045379;28;20071;-61
2022/06/14 13:25:22;;;;;;;9.85;1.73;;;21.00;76.30;;;;;;5048904;28;20045;-61
2022/06/14 13:28:11;;;;;;;5.20;1.75;;;21.10;77.60;;;;;;5056110;28;20487;-60
2022/06/14 13:30:58;;;;;;;3.92;1.17;;;21.30;78.20;;;;;;5064161;28;20036;-60
2022/06/14 13:33:43;;;;;;;9.48;1.90;;;21.10;77.20;;;;;;5047503;28;20044;-60
2022/06/14 13:36:43;;;;;;;5.32;1.50;;;21.00;78.70;;;;;;5050051;28;20485;-59
2022/06/14 13:39:22;;;;;;;8.65;2.30;;;21.10;80.10;;;;;;5068931;28;20044;-60
2022/06/14 13:42:02;;;;;;;4.07;1.55;;;21.00;81.10;;;;;;5067376;28;20040;-60
2022/06/14 13:44:43;;;;;;;9.18;1.92;;;21.10;79.80;;;;;;5069011;28;20093;-60
2022/06/14 13:47:38;;;;;;;8.70;2.17;;;21.40;80.00;;;;;;5068396;28;20083;-60
2022/06/14 13:50:25;;;;;;;7.03;1.77;;;21.60;80.40;;;;;;5068120;28;20044;-60
2022/06/14 13:53:10;;;;;;;7.55;1.90;;;21.30;76.70;;;;;;5067943;28;20055;-60
2022/06/14 13:55:41;;;;;;;8.02;2.10;;;21.20;80.00;;;;;;5068091;28;20075;-61
2022/06/14 13:58:21;;;;;;;7.45;2.08;;;21.00;79.30;;;;;;5067983;28;20063;-60
2022/06/14 14:00:53;;;;;;;8.45;1.90;;;21.10;80.50;;;;;;5065300;28;20072;-60
2022/06/14 14:03:46;;;;;;;5.70;1.85;;;21.10;79.20;;;;;;5067978;28;20056;-59
2022/06/14 14:06:22;;;;;;;7.57;1.45;;;21.30;81.70;;;;;;5047545;28;20052;-60
2022/06/14 14:09:03;;;;;;;4.72;1.30;;;21.60;79.50;;;;;;5067531;28;20067;-60
2022/06/14 14:12:06;;;;;;;10.93;2.25;;;21.50;76.20;;;;;;5067406;28;20696;-60
2022/06/14 14:14:47;;;;;;;8.80;2.03;;;21.30;78.20;;;;;;5047917;28;20397;-60
2022/06/14 14:17:38;;;;;;;4.68;1.48;;;21.10;80.70;;;;;;5052390;28;20044;-60